Time;durP1;ratioP1;P1;durP2;ratioP2;P2;SDS_P1;SDS_P2;PMS_P1;PMS_P2;Temp;Humidity;BMP_temperature;BMP_pressure;BME280_temperature;BME280_humidity;BME280_pressure;Samples;Min_cycle;Max_cycle;Signal;HPM_P1;HPM_P2
2021/03/25 00:00:51;;;;;;;7.55;3.67;;;4.00;67.80;;;;;;5042117;28;20025;-65
2021/03/25 00:03:17;;;;;;;6.97;3.13;;;3.90;67.90;;;;;;5043782;28;20057;-66
2021/03/25 00:05:43;;;;;;;6.45;3.03;;;3.90;67.40;;;;;;5041212;28;20325;-66
2021/03/25 00:08:11;;;;;;;7.10;3.58;;;4.00;67.40;;;;;;5042388;28;20044;-66
2021/03/25 00:10:37;;;;;;;8.13;3.15;;;3.90;67.90;;;;;;5042252;28;20045;-65
2021/03/25 00:13:03;;;;;;;5.22;3.30;;;3.80;68.40;;;;;;5042103;28;20033;-66
2021/03/25 00:15:29;;;;;;;6.15;3.90;;;3.80;68.40;;;;;;5043964;28;20317;-66
2021/03/25 00:17:54;;;;;;;5.65;3.40;;;3.70;68.50;;;;;;5042493;28;20060;-65
2021/03/25 00:20:20;;;;;;;7.15;3.53;;;3.80;68.80;;;;;;5042105;28;20037;-65
2021/03/25 00:22:46;;;;;;;9.50;3.42;;;3.70;68.60;;;;;;5042172;28;20042;-65
2021/03/25 00:25:16;;;;;;;6.20;3.38;;;3.70;68.80;;;;;;5040709;28;20270;-65
2021/03/25 00:27:41;;;;;;;4.57;3.10;;;3.60;68.70;;;;;;5043750;28;20037;-65
2021/03/25 00:30:09;;;;;;;5.25;3.20;;;3.70;68.80;;;;;;5042363;28;20104;-65
2021/03/25 00:32:35;;;;;;;5.45;3.00;;;3.70;68.30;;;;;;5041804;28;20048;-65
2021/03/25 00:35:00;;;;;;;5.50;3.75;;;3.70;68.40;;;;;;5043942;28;20081;-66
2021/03/25 00:37:26;;;;;;;6.18;3.25;;;3.70;68.40;;;;;;5045590;28;20037;-66
2021/03/25 00:39:51;;;;;;;6.00;4.30;;;3.60;68.70;;;;;;5045698;28;20036;-65
2021/03/25 00:42:17;;;;;;;5.63;3.05;;;3.70;68.90;;;;;;5047265;28;20021;-65
2021/03/25 00:44:43;;;;;;;5.68;3.42;;;3.60;68.80;;;;;;5045742;28;20061;-65
2021/03/25 00:47:08;;;;;;;6.18;3.40;;;3.60;68.90;;;;;;5045303;28;20037;-65
2021/03/25 00:49:34;;;;;;;7.82;3.47;;;3.40;68.80;;;;;;5044528;28;20048;-65
2021/03/25 00:52:00;;;;;;;5.80;3.22;;;3.30;69.10;;;;;;5045930;28;20140;-66
2021/03/25 00:54:26;;;;;;;8.18;3.30;;;3.30;69.30;;;;;;5046840;28;20025;-65
2021/03/25 00:56:51;;;;;;;6.93;3.40;;;3.20;69.60;;;;;;5045323;28;20044;-66
2021/03/25 00:59:17;;;;;;;4.68;3.03;;;3.30;69.60;;;;;;5045052;28;20279;-65
2021/03/25 01:01:43;;;;;;;6.28;3.40;;;3.30;69.60;;;;;;5045210;28;20101;-66
2021/03/25 01:04:08;;;;;;;4.50;3.10;;;3.20;69.60;;;;;;5044283;28;20041;-66
2021/03/25 01:06:34;;;;;;;7.72;3.20;;;3.00;70.10;;;;;;5046801;28;20156;-66
2021/03/25 01:09:00;;;;;;;6.75;3.13;;;3.10;70.40;;;;;;5044422;28;20038;-66
2021/03/25 01:11:27;;;;;;;8.07;3.25;;;3.20;70.50;;;;;;5045100;28;20038;-65
2021/03/25 01:13:55;;;;;;;5.25;2.70;;;3.20;70.80;;;;;;5027692;28;20368;-66
2021/03/25 01:16:30;;;;;;;5.00;3.05;;;3.30;70.80;;;;;;5043625;28;20029;-66
2021/03/25 01:18:56;;;;;;;5.65;3.25;;;3.20;70.20;;;;;;5044782;28;20052;-66
2021/03/25 01:21:22;;;;;;;6.53;3.50;;;3.10;70.20;;;;;;5046606;28;20083;-66
2021/03/25 01:23:47;;;;;;;7.25;3.58;;;3.10;70.50;;;;;;5045136;28;20041;-66
2021/03/25 01:26:13;;;;;;;5.15;2.80;;;3.10;70.20;;;;;;5044840;28;20386;-66
2021/03/25 01:28:38;;;;;;;5.38;3.42;;;3.00;70.30;;;;;;5044527;28;20082;-66
2021/03/25 01:31:04;;;;;;;4.63;3.20;;;3.00;70.40;;;;;;5044550;28;20393;-66
2021/03/25 01:33:29;;;;;;;5.43;3.20;;;3.00;70.50;;;;;;5046110;28;20084;-66
2021/03/25 01:35:55;;;;;;;4.68;3.05;;;2.90;70.80;;;;;;5044841;28;20030;-66
2021/03/25 01:38:21;;;;;;;6.03;3.20;;;2.90;70.80;;;;;;5043588;28;20033;-66
2021/03/25 01:40:49;;;;;;;6.85;3.13;;;2.90;71.00;;;;;;5044351;28;20031;-65
2021/03/25 01:43:28;;;;;;;5.50;2.95;;;2.90;71.20;;;;;;5043522;28;20034;-66
2021/03/25 01:45:56;;;;;;;6.80;3.08;;;2.80;71.40;;;;;;5042796;28;20111;-65
2021/03/25 01:48:25;;;;;;;6.03;3.10;;;3.00;71.30;;;;;;5046398;28;20037;-66
2021/03/25 01:50:51;;;;;;;5.55;3.38;;;2.90;71.10;;;;;;5044612;28;20038;-66
2021/03/25 01:53:31;;;;;;;5.00;2.95;;;2.80;71.30;;;;;;5044191;28;20075;-66
2021/03/25 01:56:38;;;;;;;6.07;3.15;;;2.90;71.40;;;;;;5044478;28;20143;-66
2021/03/25 01:59:24;;;;;;;5.15;3.28;;;2.80;71.50;;;;;;5043793;28;20264;-65
2021/03/25 02:02:22;;;;;;;5.10;2.95;;;2.70;71.70;;;;;;5043142;28;20056;-65
2021/03/25 02:05:11;;;;;;;5.20;2.78;;;2.70;71.70;;;;;;5013052;28;20044;-66
2021/03/25 02:08:04;;;;;;;4.32;2.80;;;2.90;71.50;;;;;;5043189;28;20329;-66
2021/03/25 02:10:38;;;;;;;5.63;3.38;;;2.90;71.30;;;;;;5042928;28;20033;-66
2021/03/25 02:13:17;;;;;;;5.85;2.97;;;2.80;71.60;;;;;;5040415;28;20033;-66
2021/03/25 02:16:03;;;;;;;4.85;2.88;;;2.90;71.70;;;;;;5008671;28;20068;-65
2021/03/25 02:18:52;;;;;;;8.10;3.20;;;2.80;71.70;;;;;;5024539;28;20038;-66
2021/03/25 02:21:33;;;;;;;4.43;3.00;;;2.70;72.10;;;;;;5023695;28;20317;-66
2021/03/25 02:24:23;;;;;;;5.47;2.80;;;2.70;72.20;;;;;;5042525;28;20033;-66
2021/03/25 02:26:54;;;;;;;6.93;2.97;;;2.90;72.50;;;;;;5027447;28;20269;-66
2021/03/25 02:29:32;;;;;;;5.53;2.83;;;2.90;72.10;;;;;;5042291;28;20049;-66
2021/03/25 02:32:00;;;;;;;5.38;3.03;;;2.80;71.90;;;;;;5043286;28;20083;-66
2021/03/25 02:34:30;;;;;;;5.93;2.90;;;2.80;71.90;;;;;;5026107;28;20037;-66
2021/03/25 02:37:00;;;;;;;4.93;2.88;;;2.80;72.00;;;;;;5026708;28;20029;-65
2021/03/25 02:39:54;;;;;;;6.13;2.80;;;2.80;72.40;;;;;;5027616;28;20309;-66
2021/03/25 02:42:23;;;;;;;8.05;2.72;;;2.90;72.20;;;;;;5043661;28;20025;-66
2021/03/25 02:45:05;;;;;;;3.97;2.50;;;2.70;72.30;;;;;;5026340;28;20157;-66
2021/03/25 02:47:30;;;;;;;4.28;2.47;;;2.70;72.50;;;;;;5011456;28;20034;-66
2021/03/25 02:50:10;;;;;;;4.90;2.80;;;2.80;72.20;;;;;;5032172;28;20302;-66
2021/03/25 02:52:39;;;;;;;5.28;2.60;;;2.70;72.60;;;;;;5041867;28;20053;-66
2021/03/25 02:55:07;;;;;;;6.05;2.50;;;2.70;72.30;;;;;;5041672;28;20033;-66
2021/03/25 02:57:41;;;;;;;6.03;2.35;;;2.70;72.50;;;;;;5043955;28;20044;-66
2021/03/25 03:00:11;;;;;;;3.55;2.42;;;2.90;71.90;;;;;;5042082;28;20038;-66
2021/03/25 03:02:38;;;;;;;4.63;2.70;;;2.80;72.10;;;;;;5041534;28;20222;-65
2021/03/25 03:05:11;;;;;;;5.05;2.30;;;2.90;72.00;;;;;;5014622;28;20040;-66
2021/03/25 03:07:46;;;;;;;3.97;2.47;;;2.70;71.70;;;;;;5021606;28;20087;-66
2021/03/25 03:10:14;;;;;;;4.07;2.42;;;2.60;71.70;;;;;;5009664;28;20097;-65
2021/03/25 03:12:45;;;;;;;5.25;2.50;;;2.60;72.00;;;;;;5026982;28;20037;-65
2021/03/25 03:15:24;;;;;;;5.45;2.00;;;2.60;72.20;;;;;;5025846;28;20060;-65
2021/03/25 03:18:10;;;;;;;6.03;2.72;;;2.60;72.50;;;;;;5042878;28;20030;-66
2021/03/25 03:20:40;;;;;;;4.95;2.30;;;2.70;72.20;;;;;;5041473;28;20060;-66
2021/03/25 03:23:06;;;;;;;3.92;2.45;;;2.60;72.30;;;;;;5015145;28;20037;-65
2021/03/25 03:25:31;;;;;;;4.07;2.20;;;2.60;72.80;;;;;;5021653;28;20034;-66
2021/03/25 03:28:15;;;;;;;5.20;2.20;;;2.60;72.50;;;;;;5021599;28;20042;-66
2021/03/25 03:30:48;;;;;;;3.20;2.08;;;2.60;72.30;;;;;;5024607;28;20034;-66
2021/03/25 03:33:21;;;;;;;3.72;2.20;;;2.70;72.40;;;;;;5006843;28;20210;-65
2021/03/25 03:35:50;;;;;;;3.03;1.83;;;2.60;72.50;;;;;;5039609;28;20274;-65
2021/03/25 03:38:26;;;;;;;4.70;2.10;;;2.60;72.20;;;;;;5041447;28;20040;-66
2021/03/25 03:40:52;;;;;;;2.90;1.95;;;2.70;72.20;;;;;;5017336;28;20241;-66
2021/03/25 03:43:18;;;;;;;2.72;2.00;;;2.70;72.00;;;;;;5024923;28;20033;-66
2021/03/25 03:45:52;;;;;;;3.00;1.77;;;2.70;71.70;;;;;;5026409;28;20037;-65
2021/03/25 03:48:34;;;;;;;3.25;1.95;;;2.60;71.50;;;;;;5042360;28;20030;-66
2021/03/25 03:51:01;;;;;;;3.55;1.80;;;2.70;71.70;;;;;;5041643;28;20037;-66
2021/03/25 03:53:27;;;;;;;4.72;2.17;;;2.80;71.60;;;;;;5041141;28;20140;-65
2021/03/25 03:55:59;;;;;;;5.15;2.50;;;2.90;70.90;;;;;;5041568;28;20026;-65
2021/03/25 03:58:53;;;;;;;3.85;2.08;;;2.70;71.10;;;;;;5041638;28;20266;-66
2021/03/25 04:01:34;;;;;;;5.68;2.20;;;2.60;71.40;;;;;;5037506;28;20267;-66
2021/03/25 04:04:02;;;;;;;3.35;1.85;;;2.60;71.50;;;;;;5026425;28;20045;-65
2021/03/25 04:06:42;;;;;;;6.95;2.78;;;2.60;71.50;;;;;;5010249;28;20041;-65
2021/03/25 04:09:16;;;;;;;3.72;2.10;;;2.70;71.70;;;;;;5026085;28;20109;-66
2021/03/25 04:11:48;;;;;;;4.80;2.05;;;2.60;71.40;;;;;;5013408;28;20089;-66
2021/03/25 04:14:35;;;;;;;5.63;2.22;;;2.50;71.50;;;;;;5028904;28;20155;-65
2021/03/25 04:17:02;;;;;;;3.65;1.90;;;2.60;71.50;;;;;;5044956;28;20033;-66
2021/03/25 04:19:33;;;;;;;8.23;2.53;;;2.50;71.70;;;;;;5044857;28;20025;-65
2021/03/25 04:22:03;;;;;;;3.97;2.40;;;2.50;71.70;;;;;;5045849;28;20029;-65
2021/03/25 04:24:30;;;;;;;5.15;2.28;;;2.40;71.70;;;;;;5046357;28;20018;-66
2021/03/25 04:27:03;;;;;;;4.28;2.30;;;2.50;71.80;;;;;;5046264;28;20042;-66
2021/03/25 04:29:38;;;;;;;4.07;2.15;;;2.50;71.80;;;;;;5014990;28;20037;-66
2021/03/25 04:32:04;;;;;;;5.47;2.15;;;2.60;71.90;;;;;;5036127;28;20037;-65
2021/03/25 04:34:30;;;;;;;5.38;2.35;;;2.70;71.50;;;;;;5044528;28;20034;-66
2021/03/25 04:36:55;;;;;;;5.30;2.42;;;2.50;71.80;;;;;;5044676;28;20244;-66
2021/03/25 04:39:21;;;;;;;5.53;2.38;;;2.50;72.10;;;;;;5029679;28;20033;-66
2021/03/25 04:41:47;;;;;;;4.88;2.50;;;2.60;72.20;;;;;;5012122;28;20034;-66
2021/03/25 04:44:32;;;;;;;5.47;2.30;;;2.50;72.10;;;;;;5036830;28;20056;-66
2021/03/25 04:47:16;;;;;;;4.55;2.55;;;2.50;72.40;;;;;;5028290;28;20087;-66
2021/03/25 04:49:47;;;;;;;6.15;2.40;;;2.40;72.50;;;;;;5045558;28;20036;-66
2021/03/25 04:52:24;;;;;;;8.07;2.42;;;2.40;72.60;;;;;;5028468;28;20056;-66
2021/03/25 04:54:50;;;;;;;6.55;2.10;;;2.50;72.10;;;;;;5044210;28;20033;-66
2021/03/25 04:57:22;;;;;;;5.75;1.80;;;2.50;72.10;;;;;;5029586;28;20029;-65
2021/03/25 04:59:47;;;;;;;3.97;1.80;;;2.50;72.10;;;;;;5045338;28;20206;-66
2021/03/25 05:02:13;;;;;;;4.85;2.53;;;2.60;72.10;;;;;;5043956;28;20104;-66
2021/03/25 05:04:46;;;;;;;4.65;2.20;;;2.40;72.10;;;;;;5043754;28;20053;-66
2021/03/25 05:07:18;;;;;;;4.03;2.00;;;2.50;72.30;;;;;;5027832;28;20343;-66
2021/03/25 05:09:44;;;;;;;4.90;1.88;;;2.50;72.10;;;;;;5028994;28;20064;-66
2021/03/25 05:12:12;;;;;;;3.92;2.17;;;2.50;72.00;;;;;;5007741;28;20038;-66
2021/03/25 05:14:37;;;;;;;2.90;1.63;;;2.50;72.10;;;;;;5039769;28;20210;-66
2021/03/25 05:17:36;;;;;;;3.55;2.05;;;2.50;72.00;;;;;;5045119;28;20034;-66
2021/03/25 05:20:40;;;;;;;7.95;2.00;;;2.60;71.60;;;;;;5044755;28;20052;-65
2021/03/25 05:23:10;;;;;;;2.67;1.70;;;2.60;71.70;;;;;;5044898;28;20041;-66
2021/03/25 05:25:43;;;;;;;3.95;1.60;;;2.50;72.00;;;;;;5044620;28;20325;-66
2021/03/25 05:28:13;;;;;;;4.15;1.80;;;2.60;72.10;;;;;;5027882;28;20040;-65
2021/03/25 05:30:39;;;;;;;6.18;1.80;;;2.60;72.00;;;;;;5046523;28;20025;-65
2021/03/25 05:33:08;;;;;;;4.05;1.90;;;2.70;71.90;;;;;;5044775;28;20052;-66
2021/03/25 05:35:36;;;;;;;11.40;1.98;;;2.70;71.70;;;;;;5012551;28;20065;-66
2021/03/25 05:38:02;;;;;;;6.65;1.90;;;2.70;71.70;;;;;;5023911;28;20092;-65
2021/03/25 05:40:40;;;;;;;7.45;2.05;;;2.80;71.70;;;;;;5030019;28;20025;-65
2021/03/25 05:43:22;;;;;;;6.15;2.15;;;2.90;71.80;;;;;;5027287;28;20218;-65
2021/03/25 05:46:19;;;;;;;4.18;2.00;;;2.90;71.10;;;;;;5043356;28;20244;-66
2021/03/25 05:49:03;;;;;;;4.93;1.85;;;2.90;70.80;;;;;;5040887;28;20064;-65
2021/03/25 05:51:47;;;;;;;2.70;1.98;;;3.10;70.90;;;;;;5044504;28;20141;-66
2021/03/25 05:54:32;;;;;;;5.93;2.00;;;3.30;71.00;;;;;;5009695;28;20336;-66
2021/03/25 05:57:11;;;;;;;4.30;2.00;;;3.40;70.30;;;;;;5026543;28;20037;-66
2021/03/25 05:59:55;;;;;;;4.50;2.00;;;3.70;70.20;;;;;;5027084;28;20109;-66
2021/03/25 06:02:37;;;;;;;9.25;1.80;;;3.90;69.50;;;;;;5043693;28;20272;-65
2021/03/25 06:05:03;;;;;;;5.68;1.65;;;4.00;68.30;;;;;;5042935;28;20052;-65
2021/03/25 06:07:56;;;;;;;7.97;1.85;;;4.10;67.20;;;;;;5041996;28;20040;-67
2021/03/25 06:10:47;;;;;;;4.53;1.77;;;4.30;66.80;;;;;;5042822;28;20053;-67
2021/03/25 06:13:50;;;;;;;6.60;1.80;;;4.50;66.40;;;;;;5042749;28;20045;-66
2021/03/25 06:16:18;;;;;;;4.35;1.60;;;4.60;66.10;;;;;;5043517;28;20132;-67
2021/03/25 06:19:03;;;;;;;3.85;1.90;;;4.80;65.70;;;;;;5045434;28;20037;-68
2021/03/25 06:21:46;;;;;;;4.05;1.88;;;5.00;66.00;;;;;;5043464;28;20030;-67
2021/03/25 06:24:42;;;;;;;11.95;2.35;;;5.20;65.60;;;;;;5044513;28;20256;-66
2021/03/25 06:27:31;;;;;;;5.47;1.60;;;5.40;65.40;;;;;;5043728;28;20209;-66
2021/03/25 06:30:00;;;;;;;5.80;1.90;;;5.60;64.70;;;;;;5043321;28;20034;-67
2021/03/25 06:32:42;;;;;;;6.47;2.08;;;5.90;64.10;;;;;;5012109;28;20042;-67
2021/03/25 06:35:23;;;;;;;3.75;1.70;;;6.20;62.70;;;;;;5026813;28;20041;-67
2021/03/25 06:37:55;;;;;;;8.88;1.90;;;6.80;60.70;;;;;;5027098;28;20044;-67
2021/03/25 06:40:27;;;;;;;7.63;2.00;;;7.60;58.50;;;;;;5042018;28;20061;-67
2021/03/25 06:42:58;;;;;;;10.80;2.60;;;8.10;56.10;;;;;;5026242;28;20030;-67
2021/03/25 06:45:24;;;;;;;10.57;2.42;;;8.60;54.30;;;;;;5027691;28;20060;-67
2021/03/25 06:48:03;;;;;;;9.00;1.80;;;9.40;51.50;;;;;;5043350;28;20044;-67
2021/03/25 06:50:37;;;;;;;16.33;4.35;;;10.10;50.40;;;;;;5042151;28;20264;-67
2021/03/25 06:53:27;;;;;;;16.80;3.60;;;12.30;44.70;;;;;;5042952;28;20072;-68
2021/03/25 06:55:57;;;;;;;7.03;3.70;;;14.60;38.30;;;;;;5043094;28;20091;-68
2021/03/25 06:58:26;;;;;;;15.25;4.40;;;15.90;36.30;;;;;;5042748;28;20202;-67
2021/03/25 07:00:58;;;;;;;9.65;4.25;;;16.80;34.40;;;;;;5041512;28;20037;-68
2021/03/25 07:03:23;;;;;;;6.30;4.30;;;18.20;30.60;;;;;;5026824;28;20037;-68
2021/03/25 07:05:49;;;;;;;19.23;4.45;;;18.80;30.20;;;;;;5008697;28;20049;-68
2021/03/25 07:08:14;;;;;;;12.50;4.10;;;18.40;30.60;;;;;;5034185;28;20074;-69
2021/03/25 07:10:41;;;;;;;6.90;4.00;;;20.30;27.80;;;;;;5042433;28;20229;-68
2021/03/25 07:13:07;;;;;;;10.18;3.83;;;22.80;24.90;;;;;;5041367;28;20045;-68
2021/03/25 07:15:35;;;;;;;7.97;3.30;;;24.60;21.60;;;;;;5043137;28;20247;-68
2021/03/25 07:18:05;;;;;;;7.22;3.35;;;26.20;21.10;;;;;;5041503;28;20088;-68
2021/03/25 07:20:34;;;;;;;5.95;3.38;;;27.50;18.70;;;;;;5025094;28;20079;-66
2021/03/25 07:23:07;;;;;;;6.82;3.10;;;28.40;17.50;;;;;;5041583;28;20424;-66
2021/03/25 07:25:35;;;;;;;9.57;2.88;;;28.50;16.90;;;;;;5041009;28;20103;-66
2021/03/25 07:28:00;;;;;;;5.75;2.05;;;29.30;17.20;;;;;;5042463;28;20087;-66
2021/03/25 07:30:26;;;;;;;8.15;2.20;;;30.70;16.00;;;;;;5043155;28;20329;-67
2021/03/25 07:32:56;;;;;;;4.28;1.80;;;31.60;14.70;;;;;;5042452;28;20101;-66
2021/03/25 07:35:30;;;;;;;10.30;1.88;;;30.90;14.90;;;;;;5024694;28;20064;-67
2021/03/25 07:37:56;;;;;;;5.18;1.92;;;31.50;14.90;;;;;;5025135;28;20082;-66
2021/03/25 07:40:33;;;;;;;5.35;1.70;;;31.30;14.00;;;;;;5042084;28;20102;-66
2021/03/25 07:43:21;;;;;;;8.07;1.70;;;31.80;14.20;;;;;;5025488;28;20155;-67
2021/03/25 07:45:47;;;;;;;4.10;1.63;;;33.70;13.30;;;;;;5042516;28;20029;-67
2021/03/25 07:48:19;;;;;;;5.75;1.45;;;33.70;12.60;;;;;;5042671;28;20266;-67
2021/03/25 07:50:45;;;;;;;5.55;1.60;;;32.40;13.10;;;;;;5042023;28;20033;-67
2021/03/25 07:53:24;;;;;;;3.80;1.35;;;33.70;12.70;;;;;;5012945;28;20041;-66
2021/03/25 07:56:01;;;;;;;5.03;1.60;;;34.80;11.20;;;;;;5031274;28;20180;-67
2021/03/25 07:58:35;;;;;;;2.50;1.45;;;34.10;11.60;;;;;;5026082;28;20061;-67
2021/03/25 08:01:08;;;;;;;2.63;1.42;;;34.50;11.80;;;;;;5041852;28;20021;-67
2021/03/25 08:03:57;;;;;;;5.40;1.63;;;35.00;11.00;;;;;;5043425;28;20077;-66
2021/03/25 08:06:29;;;;;;;6.70;1.92;;;35.00;11.30;;;;;;5026202;28;20028;-67
2021/03/25 08:08:59;;;;;;;10.85;2.17;;;35.30;11.30;;;;;;5041208;28;20156;-67
2021/03/25 08:11:25;;;;;;;4.10;2.45;;;36.30;10.50;;;;;;5041151;28;20040;-67
2021/03/25 08:14:13;;;;;;;4.85;1.83;;;36.10;10.60;;;;;;5040731;28;20038;-66
2021/03/25 08:16:46;;;;;;;16.48;2.65;;;35.70;10.80;;;;;;5040996;28;20036;-66
2021/03/25 08:19:36;;;;;;;10.63;2.38;;;36.20;10.40;;;;;;5025075;28;20053;-66
2021/03/25 08:22:16;;;;;;;6.18;2.40;;;35.70;9.80;;;;;;5041607;28;20033;-66
2021/03/25 08:25:03;;;;;;;6.03;1.98;;;35.40;10.10;;;;;;5043658;28;20029;-66
2021/03/25 08:27:31;;;;;;;5.70;3.25;;;32.20;12.50;;;;;;5041625;28;20097;-66
2021/03/25 08:30:11;;;;;;;6.15;2.72;;;30.00;13.80;;;;;;5042188;28;20038;-66
2021/03/25 08:32:57;;;;;;;4.70;2.40;;;28.30;16.00;;;;;;5040953;28;20040;-65
2021/03/25 08:35:33;;;;;;;9.50;3.13;;;27.30;17.50;;;;;;5025258;28;20368;-66
2021/03/25 08:37:59;;;;;;;9.18;3.22;;;26.70;17.30;;;;;;5015210;28;20038;-66
2021/03/25 08:40:45;;;;;;;7.43;3.17;;;26.00;18.70;;;;;;5020712;28;20045;-66
2021/03/25 08:43:35;;;;;;;6.40;3.58;;;25.40;19.00;;;;;;5024406;28;20033;-66
2021/03/25 08:46:06;;;;;;;8.75;3.40;;;24.70;19.20;;;;;;5027140;28;20029;-65
2021/03/25 08:48:36;;;;;;;7.60;3.85;;;24.00;21.10;;;;;;5025976;28;20088;-68
2021/03/25 08:51:23;;;;;;;7.25;4.07;;;23.50;21.30;;;;;;5041001;28;20037;-68
2021/03/25 08:53:58;;;;;;;7.43;3.67;;;22.60;22.20;;;;;;5027324;28;20095;-68
2021/03/25 08:56:36;;;;;;;7.53;3.95;;;22.40;22.70;;;;;;5042122;28;20060;-68
2021/03/25 08:59:05;;;;;;;9.32;3.85;;;22.00;22.80;;;;;;5045179;28;20038;-66
2021/03/25 09:01:37;;;;;;;9.30;3.92;;;21.50;24.60;;;;;;5043882;28;20308;-68
2021/03/25 09:04:04;;;;;;;9.30;3.72;;;21.40;25.30;;;;;;5027986;28;20113;-67
2021/03/25 09:06:31;;;;;;;8.13;4.20;;;21.20;25.50;;;;;;5029047;28;20040;-68
2021/03/25 09:09:02;;;;;;;7.70;4.22;;;20.90;24.60;;;;;;5044135;28;20321;-68
2021/03/25 09:11:28;;;;;;;;;;;20.70;25.90;;;;;;5027994;28;20289;-67
2021/03/25 09:13:58;;;;;;;7.63;3.95;;;20.40;25.30;;;;;;5017765;28;19912;-68
2021/03/25 09:16:34;;;;;;;7.97;3.92;;;20.30;27.10;;;;;;5023703;28;20052;-68
2021/03/25 09:19:01;;;;;;;8.55;4.70;;;20.30;26.20;;;;;;5008927;28;20038;-68
2021/03/25 09:21:27;;;;;;;10.95;4.60;;;20.20;26.70;;;;;;4993080;28;20033;-67
2021/03/25 09:23:59;;;;;;;10.27;5.38;;;20.10;27.10;;;;;;5042750;28;20060;-68
2021/03/25 09:26:24;;;;;;;14.30;5.97;;;20.10;27.50;;;;;;5044273;28;20348;-68
2021/03/25 09:28:53;;;;;;;11.98;5.93;;;19.80;26.30;;;;;;5044485;28;20075;-67
2021/03/25 09:31:19;;;;;;;17.88;7.03;;;19.70;27.40;;;;;;5043140;28;20029;-67
2021/03/25 09:33:58;;;;;;;10.48;5.75;;;19.80;27.20;;;;;;5046376;28;20041;-68
2021/03/25 09:36:24;;;;;;;13.98;5.60;;;19.80;27.70;;;;;;5011052;28;20085;-67
2021/03/25 09:38:58;;;;;;;11.38;5.20;;;19.70;28.00;;;;;;5044809;28;20313;-68
2021/03/25 09:41:29;;;;;;;15.27;5.55;;;19.80;28.50;;;;;;5044570;28;20034;-67
2021/03/25 09:44:10;;;;;;;12.43;6.35;;;19.80;28.50;;;;;;5043018;28;20038;-68
2021/03/25 09:46:42;;;;;;;11.60;6.63;;;19.70;25.60;;;;;;5044400;28;20045;-68
2021/03/25 09:49:20;;;;;;;12.30;6.82;;;19.70;26.20;;;;;;5042834;28;20033;-68
2021/03/25 09:52:08;;;;;;;12.73;6.55;;;19.60;26.40;;;;;;5044154;28;20317;-70
2021/03/25 09:54:53;;;;;;;12.70;6.63;;;19.70;27.50;;;;;;5045044;28;20036;-67
2021/03/25 09:57:31;;;;;;;15.63;7.18;;;19.80;26.80;;;;;;5027249;28;20042;-68
2021/03/25 10:00:01;;;;;;;14.23;7.53;;;19.90;27.80;;;;;;5044340;28;20289;-68
2021/03/25 10:02:42;;;;;;;13.27;6.78;;;20.00;26.50;;;;;;5043894;28;20061;-68
2021/03/25 10:05:27;;;;;;;16.55;6.75;;;20.10;26.00;;;;;;5044009;28;20042;-67
2021/03/25 10:08:20;;;;;;;19.83;6.78;;;20.10;27.10;;;;;;5034243;28;20037;-68
2021/03/25 10:10:57;;;;;;;11.98;6.78;;;20.20;26.90;;;;;;5032218;28;20025;-67
2021/03/25 10:13:43;;;;;;;12.77;7.07;;;20.30;28.30;;;;;;5042459;28;20046;-67
2021/03/25 10:16:34;;;;;;;12.63;6.65;;;20.30;27.30;;;;;;5010081;28;20060;-68
2021/03/25 10:19:02;;;;;;;10.95;6.07;;;20.40;26.70;;;;;;5043244;28;20048;-67
2021/03/25 10:21:56;;;;;;;12.32;6.85;;;20.20;24.80;;;;;;5044538;28;20034;-68
2021/03/25 10:24:26;;;;;;;12.27;6.25;;;20.10;25.40;;;;;;5044166;28;20055;-67
2021/03/25 10:27:17;;;;;;;9.38;5.90;;;20.40;25.70;;;;;;5009658;28;20052;-67
2021/03/25 10:29:43;;;;;;;19.60;6.20;;;20.60;27.70;;;;;;5039377;28;20041;-68
2021/03/25 10:32:41;;;;;;;14.73;6.25;;;20.70;25.80;;;;;;5041976;28;20045;-67
2021/03/25 10:35:07;;;;;;;9.93;5.45;;;20.80;26.70;;;;;;4989596;28;20085;-68
2021/03/25 10:37:43;;;;;;;10.02;6.53;;;21.00;26.90;;;;;;5043202;28;20071;-69
2021/03/25 10:40:22;;;;;;;15.20;6.85;;;20.80;26.40;;;;;;5041940;28;20037;-68
2021/03/25 10:42:59;;;;;;;11.80;7.03;;;20.80;25.60;;;;;;5041969;28;20092;-69
2021/03/25 10:45:54;;;;;;;13.65;6.65;;;20.70;26.00;;;;;;5043727;28;20029;-68
2021/03/25 10:48:24;;;;;;;14.95;6.55;;;20.80;26.90;;;;;;5039423;28;20037;-68
2021/03/25 10:50:55;;;;;;;13.15;6.53;;;20.90;26.30;;;;;;5043200;28;20056;-68
2021/03/25 10:53:23;;;;;;;13.02;6.00;;;20.80;27.10;;;;;;5041885;28;20037;-68
2021/03/25 10:55:50;;;;;;;13.68;5.75;;;21.10;26.60;;;;;;5032955;28;20034;-68
2021/03/25 10:58:27;;;;;;;9.82;6.15;;;21.00;26.50;;;;;;5022394;28;20112;-67
2021/03/25 11:01:15;;;;;;;11.50;5.80;;;20.90;24.00;;;;;;5007184;28;20034;-68
2021/03/25 11:03:41;;;;;;;14.82;6.72;;;20.80;25.70;;;;;;5042973;28;20042;-69
2021/03/25 11:06:07;;;;;;;11.50;6.57;;;21.10;25.40;;;;;;5025085;28;20206;-69
2021/03/25 11:08:37;;;;;;;13.10;6.45;;;21.30;27.10;;;;;;5005192;28;20368;-68
2021/03/25 11:11:15;;;;;;;13.68;6.55;;;21.50;26.30;;;;;;5033524;28;20037;-69
2021/03/25 11:13:41;;;;;;;15.10;6.22;;;21.60;26.50;;;;;;5026655;28;20029;-69
2021/03/25 11:16:18;;;;;;;15.13;6.35;;;21.70;24.70;;;;;;5041280;28;20343;-69
2021/03/25 11:18:56;;;;;;;16.38;6.80;;;21.50;25.40;;;;;;5026465;28;20336;-69
2021/03/25 11:21:30;;;;;;;14.70;6.70;;;21.70;26.30;;;;;;5027306;28;20047;-71
2021/03/25 11:24:07;;;;;;;12.43;6.80;;;22.00;25.30;;;;;;5024056;28;20057;-70
2021/03/25 11:26:32;;;;;;;10.45;6.40;;;22.20;26.70;;;;;;5021598;28;20361;-70
2021/03/25 11:28:58;;;;;;;11.85;5.97;;;22.10;23.70;;;;;;5022594;28;20064;-71
2021/03/25 11:31:26;;;;;;;30.35;6.80;;;22.30;25.10;;;;;;5027045;28;20325;-66
2021/03/25 11:33:52;;;;;;;11.65;5.63;;;22.20;25.30;;;;;;5042166;28;20054;-65
2021/03/25 11:36:38;;;;;;;12.57;5.50;;;22.30;26.10;;;;;;5043928;28;20048;-69
2021/03/25 11:39:15;;;;;;;10.10;5.85;;;22.00;26.70;;;;;;5025707;28;20061;-70
2021/03/25 11:41:41;;;;;;;11.52;5.88;;;21.90;26.80;;;;;;5025927;28;20324;-70
2021/03/25 11:44:07;;;;;;;9.73;5.50;;;21.80;27.50;;;;;;5013487;28;20041;-70
2021/03/25 11:46:46;;;;;;;9.32;5.63;;;21.70;24.80;;;;;;5027910;28;20045;-70
2021/03/25 11:49:16;;;;;;;17.23;6.28;;;21.40;25.40;;;;;;5041094;28;20045;-71
2021/03/25 11:51:47;;;;;;;11.02;5.00;;;21.40;27.60;;;;;;5043186;28;20041;-70
2021/03/25 11:54:27;;;;;;;11.35;5.30;;;21.30;27.90;;;;;;5025308;28;20030;-70
2021/03/25 11:57:03;;;;;;;9.82;4.90;;;21.50;27.90;;;;;;5041050;28;20092;-70
2021/03/25 11:59:30;;;;;;;8.25;5.35;;;21.50;28.70;;;;;;5025523;28;20041;-70
2021/03/25 12:02:28;;;;;;;10.02;5.30;;;21.30;27.60;;;;;;5024781;28;20053;-70
2021/03/25 12:04:53;;;;;;;7.72;4.95;;;21.40;28.00;;;;;;5025155;28;20087;-72
2021/03/25 12:07:20;;;;;;;8.88;4.57;;;21.30;27.80;;;;;;5040640;28;20037;-72
2021/03/25 12:10:15;;;;;;;9.32;4.82;;;21.30;27.30;;;;;;5042470;28;20044;-72
2021/03/25 12:12:44;;;;;;;9.52;4.95;;;21.30;28.00;;;;;;5055851;28;20098;-70
2021/03/25 12:15:10;;;;;;;8.02;5.03;;;21.30;28.00;;;;;;5024288;28;20048;-73
2021/03/25 12:17:36;;;;;;;9.57;4.72;;;21.30;26.50;;;;;;5040670;28;20104;-72
2021/03/25 12:20:03;;;;;;;10.52;5.45;;;21.30;27.40;;;;;;5024213;28;20037;-71
2021/03/25 12:22:29;;;;;;;9.23;5.10;;;21.20;27.30;;;;;;5040572;28;20260;-72
2021/03/25 12:24:55;;;;;;;9.98;4.65;;;21.20;26.90;;;;;;5007687;28;20037;-71
2021/03/25 12:27:27;;;;;;;8.50;4.78;;;21.20;27.40;;;;;;5026119;28;20029;-69
2021/03/25 12:29:53;;;;;;;7.75;4.20;;;21.00;26.60;;;;;;5042618;28;20045;-70
2021/03/25 12:32:23;;;;;;;7.40;4.40;;;21.10;25.90;;;;;;5044197;28;20233;-70
2021/03/25 12:34:49;;;;;;;11.25;5.43;;;21.00;27.20;;;;;;5003056;28;20030;-70
2021/03/25 12:37:15;;;;;;;8.07;5.30;;;20.80;25.10;;;;;;5024412;28;20050;-68
2021/03/25 12:39:41;;;;;;;9.32;5.00;;;20.60;25.30;;;;;;5026437;28;20044;-68
2021/03/25 12:42:06;;;;;;;9.88;4.85;;;20.50;25.60;;;;;;5045046;28;20033;-70
2021/03/25 12:44:33;;;;;;;9.75;4.45;;;20.70;26.20;;;;;;5044451;28;20178;-68
2021/03/25 12:47:00;;;;;;;6.53;4.13;;;20.70;25.20;;;;;;5043749;28;20045;-69
2021/03/25 12:49:26;;;;;;;7.38;4.18;;;20.90;27.10;;;;;;5027832;28;20046;-68
2021/03/25 12:51:51;;;;;;;10.13;4.10;;;20.80;26.80;;;;;;5045039;28;20336;-70
2021/03/25 12:54:17;;;;;;;6.20;3.65;;;20.80;26.20;;;;;;5047076;28;20071;-70
2021/03/25 12:56:42;;;;;;;6.78;3.70;;;20.80;26.80;;;;;;5044381;28;20194;-68
2021/03/25 12:59:13;;;;;;;7.35;4.03;;;20.80;27.10;;;;;;5044079;28;20048;-68
2021/03/25 13:01:39;;;;;;;10.15;3.72;;;20.90;25.90;;;;;;5027425;28;20104;-69
2021/03/25 13:04:04;;;;;;;7.68;4.40;;;21.10;27.60;;;;;;5043760;28;20029;-70
2021/03/25 13:06:30;;;;;;;7.85;3.70;;;21.00;26.80;;;;;;5045255;28;20061;-68
2021/03/25 13:08:55;;;;;;;6.78;4.10;;;20.80;26.20;;;;;;5027791;28;20053;-68
2021/03/25 13:11:26;;;;;;;5.82;3.65;;;20.80;25.70;;;;;;5043738;28;20037;-68
2021/03/25 13:13:53;;;;;;;10.02;4.03;;;20.80;26.20;;;;;;5043883;28;20029;-68
2021/03/25 13:16:18;;;;;;;7.45;3.55;;;20.80;23.50;;;;;;5043588;28;20053;-68
2021/03/25 13:18:44;;;;;;;7.25;3.42;;;20.80;25.60;;;;;;5045533;28;20340;-69
2021/03/25 13:21:10;;;;;;;10.00;3.75;;;20.80;26.00;;;;;;5027428;28;20037;-68